Time;durP1;ratioP1;P1;durP2;ratioP2;P2;SDS_P1;SDS_P2;PMS_P1;PMS_P2;Temp;Humidity;BMP_temperature;BMP_pressure;BME280_temperature;BME280_humidity;BME280_pressure;Samples;Min_cycle;Max_cycle;Signal;HPM_P1;HPM_P2
2023/03/23 00:01:22;;;;;;;6.20;4.03;;;9.70;99.90;;;;;;5015702;28;20064;-77
2023/03/23 00:03:50;;;;;;;6.55;4.47;;;9.70;99.90;;;;;;5019671;28;20124;-76
2023/03/23 00:06:17;;;;;;;9.10;6.47;;;9.80;99.90;;;;;;5001612;28;20128;-76
2023/03/23 00:08:46;;;;;;;9.80;6.78;;;9.70;99.90;;;;;;5002974;28;20065;-76
2023/03/23 00:11:20;;;;;;;12.38;9.02;;;9.80;99.90;;;;;;5020025;28;20045;-76
2023/03/23 00:13:51;;;;;;;18.85;12.85;;;9.80;99.90;;;;;;5015072;28;20664;-76
2023/03/23 00:16:28;;;;;;;18.90;14.63;;;9.80;99.90;;;;;;4986938;28;20052;-76
2023/03/23 00:18:55;;;;;;;20.10;15.88;;;9.80;99.90;;;;;;5002036;28;20281;-76
2023/03/23 00:21:32;;;;;;;21.98;16.48;;;9.80;99.90;;;;;;5000211;28;20116;-76
2023/03/23 00:24:01;;;;;;;22.98;16.35;;;9.80;99.90;;;;;;5014969;28;20859;-76
2023/03/23 00:26:29;;;;;;;21.58;16.42;;;9.90;99.90;;;;;;5006411;28;20041;-77
2023/03/23 00:28:55;;;;;;;19.73;14.90;;;9.90;99.90;;;;;;4998885;28;20049;-77
2023/03/23 00:31:22;;;;;;;18.88;15.32;;;9.90;99.90;;;;;;5014083;28;20125;-76
2023/03/23 00:33:47;;;;;;;19.70;13.70;;;10.00;99.90;;;;;;5013032;28;20042;-75
2023/03/23 00:36:13;;;;;;;16.77;13.27;;;10.00;99.90;;;;;;5002247;28;20049;-75
2023/03/23 00:38:41;;;;;;;16.48;12.68;;;10.00;99.90;;;;;;5016266;28;20431;-76
2023/03/23 00:41:11;;;;;;;17.98;13.27;;;10.00;99.90;;;;;;5014870;28;20184;-75
2023/03/23 00:43:37;;;;;;;17.83;12.85;;;10.00;99.90;;;;;;5014264;28;20053;-76
2023/03/23 00:46:09;;;;;;;19.25;13.02;;;10.00;99.90;;;;;;5011052;28;20049;-76
2023/03/23 00:48:44;;;;;;;18.17;12.77;;;10.00;99.90;;;;;;4996830;28;20621;-76
2023/03/23 00:51:11;;;;;;;17.00;12.38;;;10.10;99.90;;;;;;5003532;28;20045;-76
2023/03/23 00:53:40;;;;;;;15.88;12.35;;;10.10;99.90;;;;;;5007028;28;20049;-77
2023/03/23 00:56:08;;;;;;;17.33;12.63;;;10.10;99.90;;;;;;5013770;28;20056;-77
2023/03/23 00:58:33;;;;;;;14.95;11.90;;;10.10;99.90;;;;;;5000838;28;20054;-76
2023/03/23 01:00:59;;;;;;;15.98;11.57;;;10.10;99.90;;;;;;4983957;28;20065;-76
2023/03/23 01:03:25;;;;;;;14.93;12.15;;;10.10;99.90;;;;;;4986785;28;20241;-76
2023/03/23 01:05:52;;;;;;;15.43;11.23;;;10.10;99.90;;;;;;5013551;28;20442;-77
2023/03/23 01:08:19;;;;;;;14.27;10.90;;;10.10;99.90;;;;;;5014787;28;20052;-76
2023/03/23 01:10:47;;;;;;;14.60;11.48;;;10.10;99.90;;;;;;5021437;28;20541;-76
2023/03/23 01:13:12;;;;;;;13.13;11.00;;;10.20;99.90;;;;;;5006086;28;20058;-76
2023/03/23 01:15:39;;;;;;;20.02;11.90;;;10.20;99.90;;;;;;5001287;28;20385;-76
2023/03/23 01:18:05;;;;;;;15.80;12.70;;;10.20;99.90;;;;;;4990506;28;20045;-76
2023/03/23 01:20:31;;;;;;;16.92;12.68;;;10.20;99.90;;;;;;5017730;28;20045;-76
2023/03/23 01:23:00;;;;;;;17.33;13.90;;;10.20;99.90;;;;;;5002265;28;20389;-76
2023/03/23 01:25:31;;;;;;;21.83;14.18;;;10.20;99.90;;;;;;4984272;28;20061;-76
2023/03/23 01:27:58;;;;;;;15.70;12.40;;;10.20;99.90;;;;;;5006582;28;20132;-76
2023/03/23 01:30:24;;;;;;;16.88;11.90;;;10.20;99.90;;;;;;5016299;28;20041;-76
2023/03/23 01:32:51;;;;;;;16.27;13.07;;;10.20;99.90;;;;;;4987484;28;20492;-76
2023/03/23 01:35:17;;;;;;;20.40;12.40;;;10.20;99.90;;;;;;4998175;28;20042;-77
2023/03/23 01:37:43;;;;;;;15.32;11.20;;;10.20;99.90;;;;;;5017249;28;20050;-75
2023/03/23 01:40:10;;;;;;;13.95;10.52;;;10.20;99.90;;;;;;5014932;28;20072;-75
2023/03/23 01:42:37;;;;;;;13.00;10.70;;;10.20;99.90;;;;;;5016589;28;20343;-75
2023/03/23 01:45:24;;;;;;;14.25;10.00;;;10.20;99.90;;;;;;4987262;28;20064;-76
2023/03/23 01:47:56;;;;;;;14.65;8.95;;;10.20;99.90;;;;;;5015575;28;20072;-75
2023/03/23 01:50:23;;;;;;;13.10;8.73;;;9.20;99.90;;;;;;5015387;28;20137;-75
2023/03/23 01:52:51;;;;;;;12.57;8.75;;;10.20;99.90;;;;;;5015658;28;20041;-76
2023/03/23 01:55:18;;;;;;;13.93;8.32;;;10.20;99.90;;;;;;5000251;28;20057;-75
2023/03/23 01:57:45;;;;;;;11.98;7.68;;;10.30;99.90;;;;;;5014550;28;20046;-76
2023/03/23 02:00:15;;;;;;;11.30;7.30;;;10.30;99.90;;;;;;5015411;28;20049;-76
2023/03/23 02:02:46;;;;;;;11.45;7.40;;;10.30;99.90;;;;;;5015757;28;20045;-76
2023/03/23 02:05:33;;;;;;;11.93;5.97;;;10.30;99.90;;;;;;5016269;28;21127;-76
2023/03/23 02:08:02;;;;;;;11.02;5.80;;;10.30;99.90;;;;;;5015080;28;20755;-77
2023/03/23 02:10:30;;;;;;;8.13;5.03;;;10.30;99.90;;;;;;5015689;28;20124;-77
2023/03/23 02:12:58;;;;;;;10.05;4.40;;;10.30;99.90;;;;;;5003933;28;20472;-77
2023/03/23 02:15:27;;;;;;;11.32;4.18;;;10.30;99.90;;;;;;5021205;28;20168;-77
2023/03/23 02:18:03;;;;;;;8.20;4.18;;;10.30;99.90;;;;;;5014979;28;20053;-77
2023/03/23 02:20:48;;;;;;;9.38;3.58;;;10.30;99.90;;;;;;5002577;28;20103;-77
2023/03/23 02:23:29;;;;;;;9.38;3.33;;;10.30;99.90;;;;;;5015213;28;20041;-76
2023/03/23 02:25:54;;;;;;;9.55;2.65;;;10.40;99.90;;;;;;5016267;28;20044;-77
2023/03/23 02:28:45;;;;;;;6.75;2.33;;;10.40;99.90;;;;;;5003304;28;20053;-77
2023/03/23 02:31:16;;;;;;;11.70;2.70;;;10.40;99.90;;;;;;4997809;28;20049;-77
2023/03/23 02:34:05;;;;;;;11.02;2.33;;;10.40;99.90;;;;;;5029510;28;20149;-77
2023/03/23 02:36:52;;;;;;;10.65;2.40;;;10.40;99.90;;;;;;5014705;28;20135;-77
2023/03/23 02:39:21;;;;;;;8.68;2.13;;;10.40;99.90;;;;;;5004359;28;20496;-77
2023/03/23 02:42:10;;;;;;;7.55;2.38;;;10.40;99.90;;;;;;5018632;28;20045;-77
2023/03/23 02:44:42;;;;;;;12.82;2.67;;;10.50;99.90;;;;;;5017599;28;20057;-77
2023/03/23 02:47:14;;;;;;;9.73;2.05;;;10.50;99.90;;;;;;4999840;28;20041;-77
2023/03/23 02:49:42;;;;;;;7.63;2.60;;;10.50;99.90;;;;;;5030593;28;20038;-77
2023/03/23 02:52:15;;;;;;;8.32;2.28;;;10.50;99.90;;;;;;4997697;28;20696;-77
2023/03/23 02:54:44;;;;;;;10.07;2.30;;;10.50;99.90;;;;;;5014851;28;20045;-77
2023/03/23 02:57:10;;;;;;;10.73;2.10;;;10.50;99.90;;;;;;5000185;28;21197;-76
2023/03/23 02:59:36;;;;;;;8.07;2.45;;;10.50;99.90;;;;;;5016633;28;20057;-76
2023/03/23 03:02:36;;;;;;;10.75;2.67;;;10.50;99.90;;;;;;4985294;28;20080;-77
2023/03/23 03:05:18;;;;;;;11.93;2.38;;;10.60;99.90;;;;;;4996541;28;20468;-76
2023/03/23 03:07:56;;;;;;;5.30;2.05;;;10.60;99.90;;;;;;5018565;28;20045;-76
2023/03/23 03:10:41;;;;;;;9.32;2.00;;;10.60;99.90;;;;;;5012073;28;20561;-77
2023/03/23 03:13:19;;;;;;;8.95;2.50;;;10.70;99.90;;;;;;5000372;28;20387;-77
2023/03/23 03:16:15;;;;;;;10.32;2.58;;;10.60;99.90;;;;;;5013797;28;20143;-77
2023/03/23 03:19:00;;;;;;;9.70;2.70;;;10.60;99.90;;;;;;5010644;28;20057;-78
2023/03/23 03:21:30;;;;;;;10.70;2.35;;;10.50;99.90;;;;;;5012571;28;20145;-77
2023/03/23 03:23:58;;;;;;;11.48;2.80;;;10.40;99.90;;;;;;5002505;28;20077;-77
2023/03/23 03:26:27;;;;;;;10.30;2.25;;;10.30;99.90;;;;;;5000856;28;20188;-77
2023/03/23 03:28:54;;;;;;;10.93;2.65;;;10.00;99.90;;;;;;5000285;28;20052;-77
2023/03/23 03:31:26;;;;;;;11.75;2.33;;;10.20;99.90;;;;;;5001308;28;20053;-77
2023/03/23 03:33:52;;;;;;;10.57;2.58;;;10.10;99.90;;;;;;5013306;28;20591;-76
2023/03/23 03:36:26;;;;;;;11.63;2.30;;;10.10;99.90;;;;;;5014937;28;20038;-77
2023/03/23 03:38:53;;;;;;;11.43;2.72;;;10.20;99.90;;;;;;5014831;28;20099;-78
2023/03/23 03:41:20;;;;;;;11.10;2.22;;;10.20;99.90;;;;;;5003299;28;20136;-76
2023/03/23 03:43:45;;;;;;;7.18;2.10;;;10.30;99.90;;;;;;4999601;28;20060;-77
2023/03/23 03:46:11;;;;;;;13.25;2.72;;;10.20;99.90;;;;;;4998610;28;20348;-77
2023/03/23 03:48:37;;;;;;;5.80;2.20;;;10.20;99.90;;;;;;4982592;28;20045;-77
2023/03/23 03:51:03;;;;;;;11.85;3.03;;;10.20;99.90;;;;;;5002584;28;20168;-77
2023/03/23 03:53:30;;;;;;;9.45;2.63;;;10.30;99.90;;;;;;5011802;28;20044;-77
2023/03/23 03:55:59;;;;;;;11.13;2.60;;;10.30;99.90;;;;;;5030414;28;20046;-77
2023/03/23 03:58:31;;;;;;;9.48;2.33;;;10.30;99.90;;;;;;5017169;28;20061;-77
2023/03/23 04:00:59;;;;;;;9.57;2.22;;;10.30;99.90;;;;;;5002111;28;21868;-77
2023/03/23 04:03:26;;;;;;;13.98;2.35;;;10.30;99.90;;;;;;5016623;28;20057;-74
2023/03/23 04:05:54;;;;;;;12.85;2.83;;;10.30;99.90;;;;;;5000061;28;20056;-76
2023/03/23 04:08:22;;;;;;;14.70;2.55;;;10.30;99.90;;;;;;4998760;28;20053;-77
2023/03/23 04:10:48;;;;;;;11.98;2.60;;;10.40;99.90;;;;;;5016010;28;20613;-77
2023/03/23 04:13:14;;;;;;;17.33;3.28;;;10.30;99.90;;;;;;5015158;28;20127;-76
2023/03/23 04:15:41;;;;;;;11.60;2.85;;;10.30;99.90;;;;;;5013546;28;20100;-76
2023/03/23 04:18:06;;;;;;;10.45;2.80;;;10.30;99.90;;;;;;5014910;28;20054;-76
2023/03/23 04:20:34;;;;;;;15.88;3.17;;;10.30;99.90;;;;;;4966785;28;20102;-77
2023/03/23 04:23:01;;;;;;;15.93;3.60;;;10.30;99.90;;;;;;5015090;28;20215;-77
2023/03/23 04:25:27;;;;;;;15.70;3.25;;;10.30;99.90;;;;;;5017644;28;20049;-78
2023/03/23 04:27:53;;;;;;;14.23;3.33;;;10.30;99.90;;;;;;5015094;28;20104;-77
2023/03/23 04:30:24;;;;;;;18.42;3.55;;;10.30;99.90;;;;;;4998707;28;20045;-77
2023/03/23 04:32:51;;;;;;;15.95;3.22;;;10.30;99.90;;;;;;4997933;28;20088;-77
2023/03/23 04:35:20;;;;;;;16.33;3.47;;;10.20;99.90;;;;;;4996526;28;20045;-79
2023/03/23 04:37:46;;;;;;;16.42;3.70;;;10.20;99.90;;;;;;5015277;28;20561;-76
2023/03/23 04:43:56;;;;;;;15.88;3.70;;;10.10;99.90;;;;;;5003016;22;20415;-75
2023/03/23 04:46:22;;;;;;;14.95;4.20;;;9.30;99.90;;;;;;4994724;23;20527;-79
2023/03/23 04:48:48;;;;;;;14.85;3.25;;;10.00;99.90;;;;;;4995768;28;20058;-76
2023/03/23 04:51:14;;;;;;;22.08;4.38;;;10.00;99.90;;;;;;4965938;28;20143;-75
2023/03/23 04:53:40;;;;;;;20.38;4.25;;;9.90;99.90;;;;;;4997599;28;20140;-77
2023/03/23 04:56:07;;;;;;;20.40;4.22;;;9.90;99.90;;;;;;4995979;28;20046;-76
2023/03/23 04:58:33;;;;;;;22.15;4.32;;;9.90;99.90;;;;;;4977901;28;20057;-76
2023/03/23 05:01:00;;;;;;;18.20;3.97;;;9.90;99.90;;;;;;4963640;28;20038;-76
2023/03/23 05:03:26;;;;;;;18.08;4.40;;;9.80;99.90;;;;;;4982004;28;20048;-76
2023/03/23 05:05:53;;;;;;;29.35;4.55;;;9.80;99.90;;;;;;4997131;28;20511;-79
2023/03/23 05:08:20;;;;;;;18.23;4.05;;;9.70;99.90;;;;;;4993830;28;20050;-74
2023/03/23 05:10:57;;;;;;;25.20;6.15;;;9.70;99.90;;;;;;4998309;28;20104;-75
2023/03/23 05:13:23;;;;;;;22.48;4.63;;;9.70;99.90;;;;;;4996517;28;20185;-76
2023/03/23 05:15:49;;;;;;;24.33;4.45;;;9.70;99.90;;;;;;4981595;28;20108;-80
2023/03/23 05:18:16;;;;;;;30.25;4.53;;;9.80;99.90;;;;;;4962311;28;20062;-75
2023/03/23 05:20:42;;;;;;;21.95;4.72;;;9.80;99.90;;;;;;4998834;28;20077;-76
2023/03/23 05:23:09;;;;;;;22.05;5.07;;;9.70;99.90;;;;;;4979860;28;20064;-78
2023/03/23 05:25:39;;;;;;;25.88;4.90;;;9.70;99.90;;;;;;4981152;28;20081;-76
2023/03/23 05:28:07;;;;;;;24.02;5.00;;;9.70;99.90;;;;;;4993370;28;20112;-74
2023/03/23 05:30:33;;;;;;;21.73;4.00;;;9.70;99.90;;;;;;4997240;28;20058;-74
2023/03/23 05:32:59;;;;;;;27.15;4.90;;;9.60;99.90;;;;;;4997976;28;20554;-75
2023/03/23 05:35:25;;;;;;;22.30;4.25;;;9.60;99.90;;;;;;4998300;28;20100;-79
2023/03/23 05:37:53;;;;;;;22.55;4.18;;;9.60;99.90;;;;;;4995911;28;20057;-76
2023/03/23 05:40:20;;;;;;;23.75;4.25;;;9.60;99.90;;;;;;4998432;28;20078;-81
2023/03/23 05:42:47;;;;;;;17.10;3.75;;;9.60;99.90;;;;;;4983361;28;20050;-76
2023/03/23 05:45:13;;;;;;;14.68;2.97;;;9.50;99.90;;;;;;4978606;28;20038;-76
2023/03/23 05:47:40;;;;;;;14.43;2.75;;;9.40;99.90;;;;;;4996457;28;20528;-76
2023/03/23 05:50:08;;;;;;;13.60;2.92;;;9.30;99.90;;;;;;4980784;28;20494;-79
2023/03/23 05:52:36;;;;;;;13.65;2.35;;;9.20;99.90;;;;;;4998933;28;20567;-76
2023/03/23 05:55:03;;;;;;;13.18;2.97;;;9.10;99.90;;;;;;4980119;28;20060;-78
2023/03/23 05:57:30;;;;;;;11.65;2.78;;;9.10;99.90;;;;;;5000165;28;20671;-75
2023/03/23 05:59:57;;;;;;;15.65;3.13;;;9.00;99.90;;;;;;4999761;28;20396;-74
2023/03/23 06:02:24;;;;;;;16.10;2.20;;;9.00;99.90;;;;;;5001114;28;20052;-74
2023/03/23 06:04:57;;;;;;;12.05;2.17;;;8.90;99.90;;;;;;4999346;28;20111;-74
2023/03/23 06:07:24;;;;;;;17.30;3.30;;;9.00;99.90;;;;;;4997669;28;20050;-73
2023/03/23 06:09:50;;;;;;;21.13;3.55;;;9.00;99.90;;;;;;4998594;28;20049;-75
2023/03/23 06:12:19;;;;;;;15.65;3.08;;;9.00;99.90;;;;;;5001330;28;20054;-75
2023/03/23 06:14:49;;;;;;;18.83;3.33;;;9.10;99.90;;;;;;4999463;28;20045;-74
2023/03/23 06:17:17;;;;;;;14.43;2.97;;;9.10;99.90;;;;;;4999414;28;20069;-78
2023/03/23 06:19:43;;;;;;;17.27;3.20;;;9.10;99.90;;;;;;4999460;28;20072;-75
2023/03/23 06:22:10;;;;;;;15.98;2.88;;;9.10;99.90;;;;;;5002057;28;20660;-75
2023/03/23 06:24:36;;;;;;;15.13;2.80;;;9.10;99.90;;;;;;4985428;28;20409;-77
2023/03/23 06:27:02;;;;;;;14.95;2.80;;;9.10;99.90;;;;;;5002321;28;20094;-74
2023/03/23 06:29:28;;;;;;;18.00;3.58;;;9.10;99.90;;;;;;4997818;28;20042;-75
2023/03/23 06:32:01;;;;;;;21.70;3.70;;;9.10;99.90;;;;;;5000918;28;20050;-76
2023/03/23 06:34:26;;;;;;;27.88;4.45;;;9.20;99.90;;;;;;4999803;28;20045;-75
2023/03/23 06:36:53;;;;;;;22.90;5.05;;;9.20;99.90;;;;;;4981309;28;20050;-75
2023/03/23 06:39:21;;;;;;;28.88;4.70;;;9.20;99.90;;;;;;4981664;28;20141;-78
2023/03/23 06:41:47;;;;;;;29.45;5.13;;;9.20;99.90;;;;;;5002431;28;20480;-75
2023/03/23 06:44:13;;;;;;;25.77;4.80;;;9.30;99.90;;;;;;4964736;28;20052;-78
2023/03/23 06:46:40;;;;;;;28.08;5.20;;;9.30;99.90;;;;;;5001054;28;20045;-75
2023/03/23 06:49:05;;;;;;;24.75;5.32;;;9.30;99.90;;;;;;4998979;28;20112;-75
2023/03/23 06:51:31;;;;;;;35.58;5.18;;;9.30;99.90;;;;;;4999358;28;20046;-75
2023/03/23 06:53:57;;;;;;;36.80;7.50;;;9.30;99.90;;;;;;4999381;28;20049;-75
2023/03/23 06:56:24;;;;;;;34.05;5.82;;;9.30;99.90;;;;;;4983423;28;20057;-75
2023/03/23 06:58:49;;;;;;;26.52;5.25;;;9.40;99.90;;;;;;4981730;28;20054;-77
2023/03/23 07:01:15;;;;;;;27.67;6.00;;;9.40;99.90;;;;;;4981608;28;20073;-75
2023/03/23 07:03:42;;;;;;;22.85;5.40;;;9.40;99.90;;;;;;4980493;28;20050;-79
2023/03/23 07:06:08;;;;;;;28.85;5.18;;;9.40;99.90;;;;;;4998138;28;20062;-75
2023/03/23 07:08:40;;;;;;;36.35;5.78;;;9.40;99.90;;;;;;4993326;28;20049;-75
2023/03/23 07:11:06;;;;;;;32.65;6.22;;;9.40;99.90;;;;;;4995147;28;20120;-75
2023/03/23 07:13:32;;;;;;;26.80;5.32;;;9.30;99.90;;;;;;4997940;28;20077;-80
2023/03/23 07:15:58;;;;;;;26.35;5.60;;;9.40;99.90;;;;;;4988915;28;20416;-75
2023/03/23 07:18:24;;;;;;;36.53;6.15;;;9.40;99.90;;;;;;5000400;28;20614;-75
2023/03/23 07:20:52;;;;;;;28.05;5.78;;;9.40;99.90;;;;;;4964393;28;20052;-75
2023/03/23 07:23:19;;;;;;;29.02;5.18;;;9.40;99.90;;;;;;5004149;28;20042;-75
2023/03/23 07:25:47;;;;;;;24.08;5.75;;;9.50;99.90;;;;;;4998320;28;20050;-75
2023/03/23 07:28:13;;;;;;;27.13;5.55;;;9.50;99.90;;;;;;5000166;28;20050;-76
2023/03/23 07:30:39;;;;;;;24.08;4.88;;;9.60;99.90;;;;;;4987038;28;20068;-76
2023/03/23 07:33:07;;;;;;;27.67;5.68;;;9.70;99.90;;;;;;4988761;28;20060;-76
2023/03/23 07:35:33;;;;;;;26.45;5.32;;;9.70;99.90;;;;;;4996726;28;20046;-75
2023/03/23 07:37:59;;;;;;;30.00;5.93;;;9.80;99.90;;;;;;4998693;28;20085;-74
2023/03/23 07:40:26;;;;;;;32.80;5.78;;;9.80;99.90;;;;;;4981301;28;20058;-75
2023/03/23 07:42:54;;;;;;;34.00;5.90;;;9.80;99.90;;;;;;4981538;28;20551;-74
2023/03/23 07:45:21;;;;;;;22.75;4.20;;;9.90;99.90;;;;;;4997088;28;20467;-75
2023/03/23 07:47:47;;;;;;;31.80;5.72;;;10.00;99.90;;;;;;5000409;28;20090;-75
2023/03/23 07:50:13;;;;;;;26.55;5.88;;;9.90;99.90;;;;;;5012174;28;20493;-75
2023/03/23 07:52:41;;;;;;;35.85;5.47;;;9.90;99.90;;;;;;4998054;28;20089;-76
2023/03/23 07:55:17;;;;;;;28.25;5.55;;;10.00;99.90;;;;;;4998866;28;20077;-75
2023/03/23 07:57:49;;;;;;;26.70;4.78;;;10.00;99.90;;;;;;5015789;28;20075;-74
2023/03/23 08:00:23;;;;;;;28.50;5.28;;;9.90;99.90;;;;;;4996103;28;20057;-74
2023/03/23 08:02:51;;;;;;;27.85;4.55;;;10.00;99.90;;;;;;4977246;28;20527;-78
2023/03/23 08:05:18;;;;;;;26.98;5.55;;;10.10;99.90;;;;;;4979248;28;20048;-76
2023/03/23 08:07:44;;;;;;;29.33;5.57;;;10.20;99.90;;;;;;4988557;28;20085;-75
2023/03/23 08:10:13;;;;;;;27.00;5.43;;;10.30;99.90;;;;;;4972631;28;20042;-75
2023/03/23 08:12:40;;;;;;;32.42;5.00;;;10.40;99.90;;;;;;4988390;28;20827;-77
2023/03/23 08:15:06;;;;;;;31.23;5.10;;;10.50;99.90;;;;;;4991142;28;20491;-76
2023/03/23 08:17:34;;;;;;;27.70;4.85;;;10.60;99.90;;;;;;4994346;28;20050;-75
2023/03/23 08:20:00;;;;;;;29.65;5.13;;;10.70;99.90;;;;;;4995589;28;20057;-75
2023/03/23 08:22:28;;;;;;;27.15;5.47;;;10.80;99.90;;;;;;4993923;28;20050;-80
2023/03/23 08:24:55;;;;;;;28.15;5.45;;;10.80;99.90;;;;;;4982043;28;20120;-75
2023/03/23 08:27:20;;;;;;;30.77;5.60;;;10.90;99.90;;;;;;4995398;28;20468;-76
2023/03/23 08:29:47;;;;;;;29.92;5.43;;;11.00;99.90;;;;;;4977044;28;20050;-76
2023/03/23 08:32:14;;;;;;;27.80;5.30;;;11.10;99.90;;;;;;4996474;28;20038;-75
2023/03/23 08:34:41;;;;;;;29.08;5.47;;;11.20;99.90;;;;;;4992874;28;20047;-79
2023/03/23 08:37:08;;;;;;;26.77;6.00;;;11.20;99.90;;;;;;4993428;28;20058;-78
2023/03/23 08:39:34;;;;;;;17.75;4.72;;;11.20;99.90;;;;;;4991156;28;20046;-76
2023/03/23 08:42:00;;;;;;;26.40;5.13;;;11.30;99.90;;;;;;4977699;28;20060;-75
2023/03/23 08:44:26;;;;;;;30.05;5.72;;;11.30;99.90;;;;;;4993776;28;20065;-76
2023/03/23 08:46:56;;;;;;;27.60;5.93;;;11.40;99.90;;;;;;4993979;28;20065;-75
2023/03/23 08:49:26;;;;;;;23.67;5.63;;;11.40;99.90;;;;;;4991926;28;20064;-74
2023/03/23 08:51:52;;;;;;;21.50;5.40;;;11.70;99.90;;;;;;4958908;28;20034;-75
2023/03/23 08:54:18;;;;;;;26.20;5.88;;;11.80;99.90;;;;;;4995027;28;21318;-75
2023/03/23 08:56:45;;;;;;;26.65;5.85;;;11.80;99.90;;;;;;4991127;28;20531;-77
2023/03/23 08:59:11;;;;;;;29.65;6.10;;;11.90;99.90;;;;;;4977586;28;20105;-77
2023/03/23 09:01:37;;;;;;;29.92;5.32;;;12.00;99.90;;;;;;4988573;28;20071;-76
2023/03/23 09:04:03;;;;;;;22.48;5.32;;;12.20;99.90;;;;;;4992543;28;20041;-77
2023/03/23 09:06:30;;;;;;;28.65;5.85;;;12.20;99.90;;;;;;5009086;28;21818;-75
2023/03/23 09:08:55;;;;;;;28.60;5.35;;;12.20;99.90;;;;;;4958450;28;20493;-75
2023/03/23 09:11:22;;;;;;;26.95;5.07;;;12.20;99.90;;;;;;4978860;28;20054;-79
2023/03/23 09:13:47;;;;;;;25.85;6.22;;;12.40;99.90;;;;;;5007549;28;20042;-77
2023/03/23 09:16:14;;;;;;;30.52;6.22;;;12.50;99.90;;;;;;4972396;28;21467;-79
2023/03/23 09:18:40;;;;;;;24.67;5.28;;;12.60;99.90;;;;;;4974435;28;20145;-76
2023/03/23 09:21:06;;;;;;;26.20;5.80;;;12.30;99.90;;;;;;4991815;28;20125;-77
2023/03/23 09:23:32;;;;;;;23.95;5.22;;;12.60;99.90;;;;;;4994475;28;20050;-75
2023/03/23 09:26:01;;;;;;;27.83;4.95;;;12.70;99.90;;;;;;4993401;28;20049;-76
2023/03/23 09:28:27;;;;;;;26.75;4.88;;;12.70;99.90;;;;;;4976490;28;20522;-76
2023/03/23 09:30:57;;;;;;;29.65;6.85;;;12.80;99.90;;;;;;4993699;28;20049;-77
2023/03/23 09:33:23;;;;;;;26.17;5.43;;;13.00;99.90;;;;;;4978863;28;20045;-75
2023/03/23 09:35:49;;;;;;;29.67;5.55;;;13.00;99.90;;;;;;4976531;28;20038;-77
2023/03/23 09:38:15;;;;;;;26.58;5.70;;;13.10;99.90;;;;;;4984526;28;20049;-77
2023/03/23 09:40:53;;;;;;;28.15;6.55;;;13.20;99.90;;;;;;4995937;28;20678;-77
2023/03/23 09:43:35;;;;;;;28.58;6.43;;;13.30;99.90;;;;;;4996233;28;20424;-80
2023/03/23 09:46:31;;;;;;;29.85;6.20;;;13.40;99.90;;;;;;4995120;28;20049;-77
2023/03/23 09:49:02;;;;;;;31.63;5.80;;;13.60;99.90;;;;;;4994318;28;20527;-78
2023/03/23 09:51:37;;;;;;;26.58;5.38;;;14.60;99.90;;;;;;5013275;28;20584;-77
2023/03/23 09:54:27;;;;;;;26.02;5.10;;;13.90;99.90;;;;;;4999884;28;20065;-80
2023/03/23 09:56:55;;;;;;;29.27;5.93;;;13.90;99.90;;;;;;4982926;28;20164;-75
2023/03/23 09:59:40;;;;;;;26.35;5.63;;;13.90;99.90;;;;;;4998015;28;20129;-76
2023/03/23 10:02:19;;;;;;;24.63;5.28;;;13.90;99.90;;;;;;4996434;28;20695;-77
2023/03/23 10:04:49;;;;;;;29.27;5.40;;;14.00;99.90;;;;;;4997219;28;20520;-77
2023/03/23 10:07:17;;;;;;;27.85;5.35;;;14.00;99.90;;;;;;5001753;28;20104;-75
2023/03/23 10:09:49;;;;;;;26.90;6.25;;;14.20;99.90;;;;;;4993362;28;20054;-76
2023/03/23 10:12:27;;;;;;;24.40;6.05;;;14.50;99.90;;;;;;4994992;28;20050;-73
2023/03/23 10:15:15;;;;;;;24.05;4.75;;;14.30;99.90;;;;;;4995671;28;20073;-79
2023/03/23 10:18:02;;;;;;;22.88;5.13;;;14.50;99.90;;;;;;4997383;28;20131;-79
2023/03/23 10:20:53;;;;;;;22.38;4.93;;;14.50;99.90;;;;;;4994953;28;20081;-74
2023/03/23 10:23:19;;;;;;;19.73;5.28;;;14.40;99.90;;;;;;4993587;28;20623;-76
2023/03/23 10:26:12;;;;;;;25.40;5.10;;;14.20;99.90;;;;;;4983392;28;20058;-77
2023/03/23 10:28:43;;;;;;;21.48;5.03;;;14.10;99.90;;;;;;4995616;28;20626;-78
2023/03/23 10:31:14;;;;;;;23.75;5.13;;;14.20;99.90;;;;;;4992923;28;20112;-75
2023/03/23 10:33:44;;;;;;;24.23;4.70;;;14.10;99.90;;;;;;4993044;28;20510;-80
2023/03/23 10:36:21;;;;;;;24.65;5.43;;;14.30;99.90;;;;;;4978851;28;20114;-78
2023/03/23 10:39:09;;;;;;;23.73;5.13;;;14.40;99.90;;;;;;4986464;28;20073;-79
2023/03/23 10:41:37;;;;;;;21.17;4.72;;;14.40;99.90;;;;;;4989805;28;20050;-78
2023/03/23 10:44:20;;;;;;;24.30;4.80;;;14.50;99.90;;;;;;4974760;28;20380;-76
2023/03/23 10:47:02;;;;;;;23.58;4.63;;;14.60;99.90;;;;;;4980695;28;20117;-78
2023/03/23 10:49:43;;;;;;;23.55;4.65;;;14.50;99.90;;;;;;4992658;28;20149;-76
2023/03/23 10:52:55;;;;;;;22.98;4.45;;;14.60;99.90;;;;;;4993702;28;20839;-76
2023/03/23 10:55:23;;;;;;;22.50;4.97;;;14.70;99.90;;;;;;4976549;28;20061;-78
2023/03/23 10:58:11;;;;;;;22.60;4.50;;;14.90;99.90;;;;;;4992227;28;20057;-79
2023/03/23 11:00:47;;;;;;;22.02;4.13;;;14.70;99.90;;;;;;4981810;28;20058;-79
2023/03/23 11:03:17;;;;;;;23.88;4.78;;;14.60;99.90;;;;;;4983432;28;20137;-78
2023/03/23 11:05:52;;;;;;;19.52;4.28;;;14.60;99.90;;;;;;4995877;28;20050;-79
2023/03/23 11:08:21;;;;;;;17.55;4.13;;;14.50;99.90;;;;;;4982266;28;20061;-76
2023/03/23 11:10:59;;;;;;;20.27;4.00;;;14.40;99.90;;;;;;4993917;28;20056;-81
2023/03/23 11:13:31;;;;;;;21.40;4.30;;;14.50;99.90;;;;;;4993623;28;20979;-81
2023/03/23 11:15:57;;;;;;;18.02;4.10;;;14.60;99.90;;;;;;4976999;28;20057;-75
2023/03/23 11:18:39;;;;;;;19.98;4.32;;;14.80;99.90;;;;;;4979703;28;20571;-80
2023/03/23 11:21:08;;;;;;;16.25;4.25;;;15.00;99.90;;;;;;4995789;28;20038;-76
2023/03/23 11:23:36;;;;;;;24.83;4.57;;;15.10;99.90;;;;;;4989348;28;20073;-77
2023/03/23 11:26:17;;;;;;;16.42;4.15;;;15.10;99.90;;;;;;4976637;28;20072;-76
2023/03/23 11:28:51;;;;;;;15.00;3.53;;;15.10;99.90;;;;;;4991042;28;20141;-76
2023/03/23 11:31:21;;;;;;;17.05;4.28;;;15.20;99.90;;;;;;4989145;28;20433;-79
2023/03/23 11:33:58;;;;;;;20.25;4.25;;;15.20;99.90;;;;;;4994022;28;20503;-79
2023/03/23 11:36:40;;;;;;;18.85;4.70;;;15.30;99.90;;;;;;4993991;28;20058;-77
2023/03/23 11:39:27;;;;;;;16.85;5.18;;;15.40;99.90;;;;;;4992080;28;20057;-77
2023/03/23 11:41:55;;;;;;;16.70;4.15;;;15.50;99.90;;;;;;4992732;28;20078;-80
2023/03/23 11:44:31;;;;;;;21.10;4.32;;;15.60;99.90;;;;;;4987665;28;20046;-78
2023/03/23 11:47:37;;;;;;;24.55;4.38;;;15.70;99.90;;;;;;4995070;28;20123;-77
2023/03/23 11:50:31;;;;;;;22.17;3.97;;;15.70;99.90;;;;;;4995813;28;20045;-78
2023/03/23 11:53:22;;;;;;;17.67;3.47;;;15.80;99.90;;;;;;4979219;28;20046;-76
2023/03/23 11:55:55;;;;;;;17.85;4.22;;;15.80;99.90;;;;;;4981835;28;20054;-81
2023/03/23 11:58:22;;;;;;;21.20;4.53;;;15.90;99.90;;;;;;4996871;28;20057;-77
2023/03/23 12:00:57;;;;;;;22.10;4.82;;;15.90;99.90;;;;;;4996935;28;20092;-82
2023/03/23 12:03:26;;;;;;;21.55;4.30;;;16.40;99.90;;;;;;4992710;28;20054;-76
2023/03/23 12:06:06;;;;;;;24.48;4.40;;;15.80;99.90;;;;;;4996736;28;20651;-76
2023/03/23 12:08:57;;;;;;;19.65;4.68;;;15.70;99.90;;;;;;4979279;28;20057;-75
2023/03/23 12:11:57;;;;;;;17.65;4.13;;;15.50;99.90;;;;;;4995137;28;20038;-78
2023/03/23 12:14:35;;;;;;;16.52;4.53;;;15.60;99.90;;;;;;5000452;28;20156;-75
2023/03/23 12:17:11;;;;;;;16.95;4.35;;;15.70;99.90;;;;;;4998668;28;20049;-77
2023/03/23 12:19:40;;;;;;;17.25;3.97;;;15.70;99.90;;;;;;4982154;28;20034;-77
2023/03/23 12:22:15;;;;;;;18.98;4.85;;;15.60;99.90;;;;;;4980802;28;20156;-78
2023/03/23 12:24:49;;;;;;;18.20;3.90;;;15.40;99.90;;;;;;4994861;28;20057;-76
2023/03/23 12:27:24;;;;;;;25.42;4.22;;;15.40;99.90;;;;;;4997199;28;20050;-76
2023/03/23 12:30:02;;;;;;;19.50;4.72;;;15.60;99.90;;;;;;4997093;28;20049;-81
2023/03/23 12:33:17;;;;;;;18.83;3.83;;;15.80;99.90;;;;;;5002839;28;20046;-79
2023/03/23 12:35:55;;;;;;;20.38;4.18;;;16.00;99.90;;;;;;4958164;28;20054;-76
2023/03/23 12:38:34;;;;;;;16.88;4.32;;;16.00;99.90;;;;;;4973771;28;20060;-76
2023/03/23 12:41:12;;;;;;;22.10;4.30;;;16.00;99.90;;;;;;4967329;28;20062;-82
2023/03/23 12:43:49;;;;;;;18.45;4.40;;;15.90;99.90;;;;;;4984511;28;20057;-78
2023/03/23 12:46:33;;;;;;;16.80;4.20;;;16.00;99.90;;;;;;4997296;28;20077;-76
2023/03/23 12:49:32;;;;;;;19.48;3.88;;;16.00;99.90;;;;;;5003645;28;20052;-75
2023/03/23 12:52:11;;;;;;;13.88;4.03;;;16.10;99.90;;;;;;4944129;28;20058;-75
2023/03/23 12:55:00;;;;;;;18.17;4.45;;;16.30;99.90;;;;;;5001378;28;20568;-75
2023/03/23 12:57:35;;;;;;;18.50;4.22;;;16.50;99.90;;;;;;4981627;28;20081;-78
2023/03/23 13:00:25;;;;;;;16.35;4.25;;;16.50;99.90;;;;;;4995849;28;20161;-79
2023/03/23 13:02:56;;;;;;;17.55;4.03;;;16.50;99.90;;;;;;4997223;28;20038;-76